<?xml version="1.0" encoding="UTF-8" standalone="no" ?>
<gpx xmlns="http://www.topografix.com/GPX/1/1" xmlns:xsi="http://www.w3.org/2001/XMLSchema-instance" xsi:schemaLocation="http://www.topografix.com/GPX/1/1 http://www.topografix.com/GPX/1/1/gpx.xsd" version="1.1" creator="VisuGPX - https://www.visugpx.com">
  <metadata>
    <name>Archiane-Sentier des Vautours (Drôme)</name>
    <desc><![CDATA[Randonnée facile à partir d'Archiane]]></desc>
  </metadata>
  <trk>
    <name><![CDATA[Archiane-Sentier des Vautours - F]]></name>
    <trkseg>
      <trkpt lat="44.74615" lon="5.50474">
        <ele>765</ele>
        <time>2020-08-26T18:16:12.88Z</time>
      </trkpt>
      <trkpt lat="44.74616" lon="5.50431">
        <ele>767</ele>
        <time>2020-08-26T18:16:44.10Z</time>
      </trkpt>
      <trkpt lat="44.74626" lon="5.50422">
        <ele>768</ele>
        <time>2020-08-26T18:16:55.27Z</time>
      </trkpt>
      <trkpt lat="44.74642" lon="5.50419">
        <ele>769</ele>
        <time>2020-08-26T18:17:10.85Z</time>
      </trkpt>
      <trkpt lat="44.74663" lon="5.5035">
        <ele>772</ele>
        <time>2020-08-26T18:18:03.60Z</time>
      </trkpt>
      <trkpt lat="44.74701" lon="5.50284">
        <ele>776</ele>
        <time>2020-08-26T18:19:03.86Z</time>
      </trkpt>
      <trkpt lat="44.74711" lon="5.50259">
        <ele>777</ele>
        <time>2020-08-26T18:19:24.52Z</time>
      </trkpt>
      <trkpt lat="44.74717" lon="5.50211">
        <ele>780</ele>
        <time>2020-08-26T18:20:03.73Z</time>
      </trkpt>
      <trkpt lat="44.74722" lon="5.50189">
        <ele>782</ele>
        <time>2020-08-26T18:20:23.01Z</time>
      </trkpt>
      <trkpt lat="44.74723" lon="5.50161">
        <ele>783</ele>
        <time>2020-08-26T18:20:44.90Z</time>
      </trkpt>
      <trkpt lat="44.74726" lon="5.50155">
        <ele>784</ele>
        <time>2020-08-26T18:20:49.84Z</time>
      </trkpt>
      <trkpt lat="44.74737" lon="5.50145">
        <ele>785</ele>
        <time>2020-08-26T18:21:04.40Z</time>
      </trkpt>
      <trkpt lat="44.74739" lon="5.50139">
        <ele>785</ele>
        <time>2020-08-26T18:21:10.26Z</time>
      </trkpt>
      <trkpt lat="44.74736" lon="5.50119">
        <ele>786</ele>
        <time>2020-08-26T18:21:25.96Z</time>
      </trkpt>
      <trkpt lat="44.7476" lon="5.50017">
        <ele>793</ele>
        <time>2020-08-26T18:22:55.35Z</time>
      </trkpt>
      <trkpt lat="44.74758" lon="5.49986">
        <ele>795</ele>
        <time>2020-08-26T18:23:20.81Z</time>
      </trkpt>
      <trkpt lat="44.74761" lon="5.49925">
        <ele>799</ele>
        <time>2020-08-26T18:24:21.20Z</time>
      </trkpt>
      <trkpt lat="44.74778" lon="5.49816">
        <ele>810</ele>
        <time>2020-08-26T18:26:30.96Z</time>
      </trkpt>
      <trkpt lat="44.74784" lon="5.49799">
        <ele>812</ele>
        <time>2020-08-26T18:26:52.99Z</time>
      </trkpt>
      <trkpt lat="44.74827" lon="5.49746">
        <ele>822</ele>
        <time>2020-08-26T18:28:32.83Z</time>
      </trkpt>
      <trkpt lat="44.7483" lon="5.49724">
        <ele>825</ele>
        <time>2020-08-26T18:28:59.55Z</time>
      </trkpt>
      <trkpt lat="44.74834" lon="5.49713">
        <ele>826</ele>
        <time>2020-08-26T18:29:13.69Z</time>
      </trkpt>
      <trkpt lat="44.74904" lon="5.49653">
        <ele>838</ele>
        <time>2020-08-26T18:31:23.09Z</time>
      </trkpt>
      <trkpt lat="44.74911" lon="5.49618">
        <ele>842</ele>
        <time>2020-08-26T18:32:05.57Z</time>
      </trkpt>
      <trkpt lat="44.74925" lon="5.49575">
        <ele>847</ele>
        <time>2020-08-26T18:33:04.69Z</time>
      </trkpt>
      <trkpt lat="44.74925" lon="5.49552">
        <ele>850</ele>
        <time>2020-08-26T18:33:37.56Z</time>
      </trkpt>
      <trkpt lat="44.74929" lon="5.49543">
        <ele>852</ele>
        <time>2020-08-26T18:33:53.01Z</time>
      </trkpt>
      <trkpt lat="44.74974" lon="5.49491">
        <ele>865</ele>
        <time>2020-08-26T18:36:16.01Z</time>
      </trkpt>
      <trkpt lat="44.75013" lon="5.49453">
        <ele>879</ele>
        <time>2020-08-26T18:38:27.10Z</time>
      </trkpt>
      <trkpt lat="44.75072" lon="5.49419">
        <ele>897</ele>
        <time>2020-08-26T18:41:22.44Z</time>
      </trkpt>
      <trkpt lat="44.75113" lon="5.49369">
        <ele>913</ele>
        <time>2020-08-26T18:43:53.33Z</time>
      </trkpt>
      <trkpt lat="44.75129" lon="5.49359">
        <ele>918</ele>
        <time>2020-08-26T18:44:39.47Z</time>
      </trkpt>
      <trkpt lat="44.75147" lon="5.49355">
        <ele>923</ele>
        <time>2020-08-26T18:45:29.60Z</time>
      </trkpt>
      <trkpt lat="44.75186" lon="5.4937">
        <ele>934</ele>
        <time>2020-08-26T18:47:18.66Z</time>
      </trkpt>
      <trkpt lat="44.752" lon="5.4937">
        <ele>938</ele>
        <time>2020-08-26T18:47:57.91Z</time>
      </trkpt>
      <trkpt lat="44.75208" lon="5.49364">
        <ele>941</ele>
        <time>2020-08-26T18:48:23.10Z</time>
      </trkpt>
      <trkpt lat="44.75215" lon="5.49358">
        <ele>943</ele>
        <time>2020-08-26T18:48:46.12Z</time>
      </trkpt>
      <trkpt lat="44.75225" lon="5.49339">
        <ele>948</ele>
        <time>2020-08-26T18:49:28.99Z</time>
      </trkpt>
      <trkpt lat="44.75226" lon="5.49327">
        <ele>950</ele>
        <time>2020-08-26T18:49:52.29Z</time>
      </trkpt>
      <trkpt lat="44.75217" lon="5.49306">
        <ele>955</ele>
        <time>2020-08-26T18:50:35.92Z</time>
      </trkpt>
      <trkpt lat="44.75221" lon="5.49292">
        <ele>958</ele>
        <time>2020-08-26T18:51:04.84Z</time>
      </trkpt>
      <trkpt lat="44.75243" lon="5.4928">
        <ele>964</ele>
        <time>2020-08-26T18:52:04.92Z</time>
      </trkpt>
      <trkpt lat="44.75289" lon="5.49235">
        <ele>979</ele>
        <time>2020-08-26T18:54:13.66Z</time>
      </trkpt>
      <trkpt lat="44.75298" lon="5.49231">
        <ele>981</ele>
        <time>2020-08-26T18:54:33.66Z</time>
      </trkpt>
      <trkpt lat="44.75289" lon="5.49267">
        <ele>986</ele>
        <time>2020-08-26T18:55:26.78Z</time>
      </trkpt>
      <trkpt lat="44.7529" lon="5.49279">
        <ele>988</ele>
        <time>2020-08-26T18:55:42.79Z</time>
      </trkpt>
      <trkpt lat="44.75308" lon="5.49313">
        <ele>994</ele>
        <time>2020-08-26T18:56:38.28Z</time>
      </trkpt>
      <trkpt lat="44.75307" lon="5.49332">
        <ele>996</ele>
        <time>2020-08-26T18:57:03.37Z</time>
      </trkpt>
      <trkpt lat="44.75289" lon="5.49372">
        <ele>1002</ele>
        <time>2020-08-26T18:58:02.86Z</time>
      </trkpt>
      <trkpt lat="44.75296" lon="5.49403">
        <ele>1006</ele>
        <time>2020-08-26T18:58:41.20Z</time>
      </trkpt>
      <trkpt lat="44.7529" lon="5.4942">
        <ele>1008</ele>
        <time>2020-08-26T18:59:01.88Z</time>
      </trkpt>
      <trkpt lat="44.75276" lon="5.49444">
        <ele>1011</ele>
        <time>2020-08-26T18:59:36.93Z</time>
      </trkpt>
      <trkpt lat="44.75271" lon="5.49461">
        <ele>1013</ele>
        <time>2020-08-26T18:59:57.90Z</time>
      </trkpt>
      <trkpt lat="44.75262" lon="5.49547">
        <ele>1022</ele>
        <time>2020-08-26T19:01:23.46Z</time>
      </trkpt>
      <trkpt lat="44.75262" lon="5.4957">
        <ele>1024</ele>
        <time>2020-08-26T19:01:46.88Z</time>
      </trkpt>
      <trkpt lat="44.75277" lon="5.49748">
        <ele>1038</ele>
        <time>2020-08-26T19:04:28.36Z</time>
      </trkpt>
      <trkpt lat="44.75276" lon="5.49823">
        <ele>1043</ele>
        <time>2020-08-26T19:05:36.39Z</time>
      </trkpt>
      <trkpt lat="44.75272" lon="5.49848">
        <ele>1045</ele>
        <time>2020-08-26T19:05:58.84Z</time>
      </trkpt>
      <trkpt lat="44.75263" lon="5.49878">
        <ele>1048</ele>
        <time>2020-08-26T19:06:30.80Z</time>
      </trkpt>
      <trkpt lat="44.75239" lon="5.49918">
        <ele>1052</ele>
        <time>2020-08-26T19:07:20.54Z</time>
      </trkpt>
      <trkpt lat="44.75215" lon="5.49949">
        <ele>1056</ele>
        <time>2020-08-26T19:08:05.45Z</time>
      </trkpt>
      <trkpt lat="44.7521" lon="5.49976">
        <ele>1058</ele>
        <time>2020-08-26T19:08:33.87Z</time>
      </trkpt>
      <trkpt lat="44.75214" lon="5.49994">
        <ele>1060</ele>
        <time>2020-08-26T19:08:52.71Z</time>
      </trkpt>
      <trkpt lat="44.7522" lon="5.49995">
        <ele>1061</ele>
        <time>2020-08-26T19:09:01.23Z</time>
      </trkpt>
      <trkpt lat="44.75227" lon="5.49986">
        <ele>1062</ele>
        <time>2020-08-26T19:09:15.86Z</time>
      </trkpt>
      <trkpt lat="44.75271" lon="5.49962">
        <ele>1068</ele>
        <time>2020-08-26T19:10:22.67Z</time>
      </trkpt>
      <trkpt lat="44.75295" lon="5.49961">
        <ele>1071</ele>
        <time>2020-08-26T19:10:54.47Z</time>
      </trkpt>
      <trkpt lat="44.75323" lon="5.49967">
        <ele>1074</ele>
        <time>2020-08-26T19:11:30.73Z</time>
      </trkpt>
      <trkpt lat="44.75341" lon="5.49978">
        <ele>1076</ele>
        <time>2020-08-26T19:11:54.10Z</time>
      </trkpt>
      <trkpt lat="44.75415" lon="5.50048">
        <ele>1085</ele>
        <time>2020-08-26T19:13:39.31Z</time>
      </trkpt>
      <trkpt lat="44.75451" lon="5.50075">
        <ele>1088</ele>
        <time>2020-08-26T19:14:29.84Z</time>
      </trkpt>
      <trkpt lat="44.75642" lon="5.50175">
        <ele>1110</ele>
        <time>2020-08-26T19:17:37.88Z</time>
      </trkpt>
      <trkpt lat="44.75921" lon="5.50291">
        <ele>1108</ele>
        <time>2020-08-26T19:21:30.90Z</time>
      </trkpt>
      <trkpt lat="44.75947" lon="5.50307">
        <ele>1106</ele>
        <time>2020-08-26T19:22:03.37Z</time>
      </trkpt>
      <trkpt lat="44.76014" lon="5.50384">
        <ele>1092</ele>
        <time>2020-08-26T19:24:05.88Z</time>
      </trkpt>
      <trkpt lat="44.75948" lon="5.50395">
        <ele>1078</ele>
        <time>2020-08-26T19:25:45.84Z</time>
      </trkpt>
      <trkpt lat="44.75846" lon="5.50429">
        <ele>1058</ele>
        <time>2020-08-26T19:28:10.42Z</time>
      </trkpt>
      <trkpt lat="44.75782" lon="5.50469">
        <ele>1047</ele>
        <time>2020-08-26T19:29:50.16Z</time>
      </trkpt>
      <trkpt lat="44.75738" lon="5.50515">
        <ele>1035</ele>
        <time>2020-08-26T19:31:30.03Z</time>
      </trkpt>
      <trkpt lat="44.75694" lon="5.50584">
        <ele>1017</ele>
        <time>2020-08-26T19:33:39.61Z</time>
      </trkpt>
      <trkpt lat="44.75674" lon="5.50644">
        <ele>1004</ele>
        <time>2020-08-26T19:35:10.72Z</time>
      </trkpt>
      <trkpt lat="44.75646" lon="5.50653">
        <ele>997</ele>
        <time>2020-08-26T19:35:53.73Z</time>
      </trkpt>
      <trkpt lat="44.75591" lon="5.50692">
        <ele>986</ele>
        <time>2020-08-26T19:37:09.75Z</time>
      </trkpt>
      <trkpt lat="44.75536" lon="5.50694">
        <ele>979</ele>
        <time>2020-08-26T19:38:10.48Z</time>
      </trkpt>
      <trkpt lat="44.75502" lon="5.50711">
        <ele>974</ele>
        <time>2020-08-26T19:38:57.47Z</time>
      </trkpt>
      <trkpt lat="44.75423" lon="5.50728">
        <ele>960</ele>
        <time>2020-08-26T19:40:45.85Z</time>
      </trkpt>
      <trkpt lat="44.75357" lon="5.50755">
        <ele>948</ele>
        <time>2020-08-26T19:42:21.58Z</time>
      </trkpt>
      <trkpt lat="44.75308" lon="5.50765">
        <ele>939</ele>
        <time>2020-08-26T19:43:26.48Z</time>
      </trkpt>
      <trkpt lat="44.75244" lon="5.50771">
        <ele>929</ele>
        <time>2020-08-26T19:44:45.12Z</time>
      </trkpt>
      <trkpt lat="44.75223" lon="5.50769">
        <ele>926</ele>
        <time>2020-08-26T19:45:10.44Z</time>
      </trkpt>
      <trkpt lat="44.75197" lon="5.5076">
        <ele>922</ele>
        <time>2020-08-26T19:45:44.18Z</time>
      </trkpt>
      <trkpt lat="44.75176" lon="5.50744">
        <ele>918</ele>
        <time>2020-08-26T19:46:14.17Z</time>
      </trkpt>
      <trkpt lat="44.75135" lon="5.50697">
        <ele>910</ele>
        <time>2020-08-26T19:47:22.22Z</time>
      </trkpt>
      <trkpt lat="44.75121" lon="5.50672">
        <ele>906</ele>
        <time>2020-08-26T19:47:51.10Z</time>
      </trkpt>
      <trkpt lat="44.75096" lon="5.50695">
        <ele>901</ele>
        <time>2020-08-26T19:48:35.22Z</time>
      </trkpt>
      <trkpt lat="44.75062" lon="5.50759">
        <ele>889</ele>
        <time>2020-08-26T19:50:13.13Z</time>
      </trkpt>
      <trkpt lat="44.75004" lon="5.5078">
        <ele>874</ele>
        <time>2020-08-26T19:51:59.57Z</time>
      </trkpt>
      <trkpt lat="44.74989" lon="5.50797">
        <ele>869</ele>
        <time>2020-08-26T19:52:34.79Z</time>
      </trkpt>
      <trkpt lat="44.74982" lon="5.50811">
        <ele>867</ele>
        <time>2020-08-26T19:52:55.85Z</time>
      </trkpt>
      <trkpt lat="44.74962" lon="5.50822">
        <ele>861</ele>
        <time>2020-08-26T19:53:32.63Z</time>
      </trkpt>
      <trkpt lat="44.74952" lon="5.50832">
        <ele>858</ele>
        <time>2020-08-26T19:53:53.29Z</time>
      </trkpt>
      <trkpt lat="44.74946" lon="5.50827">
        <ele>857</ele>
        <time>2020-08-26T19:54:05.59Z</time>
      </trkpt>
      <trkpt lat="44.7494" lon="5.50777">
        <ele>849</ele>
        <time>2020-08-26T19:55:06.46Z</time>
      </trkpt>
      <trkpt lat="44.74933" lon="5.50768">
        <ele>847</ele>
        <time>2020-08-26T19:55:23.18Z</time>
      </trkpt>
      <trkpt lat="44.74917" lon="5.50795">
        <ele>841</ele>
        <time>2020-08-26T19:56:02.54Z</time>
      </trkpt>
      <trkpt lat="44.749" lon="5.50803">
        <ele>838</ele>
        <time>2020-08-26T19:56:32.63Z</time>
      </trkpt>
      <trkpt lat="44.74891" lon="5.50802">
        <ele>836</ele>
        <time>2020-08-26T19:56:47.35Z</time>
      </trkpt>
      <trkpt lat="44.74842" lon="5.50781">
        <ele>824</ele>
        <time>2020-08-26T19:58:18.35Z</time>
      </trkpt>
      <trkpt lat="44.74791" lon="5.50782">
        <ele>811</ele>
        <time>2020-08-26T19:59:59.14Z</time>
      </trkpt>
      <trkpt lat="44.74782" lon="5.50787">
        <ele>808</ele>
        <time>2020-08-26T20:00:18.21Z</time>
      </trkpt>
      <trkpt lat="44.74772" lon="5.50787">
        <ele>805</ele>
        <time>2020-08-26T20:00:36.28Z</time>
      </trkpt>
      <trkpt lat="44.74759" lon="5.5078">
        <ele>801</ele>
        <time>2020-08-26T20:01:04.10Z</time>
      </trkpt>
      <trkpt lat="44.74722" lon="5.50749">
        <ele>790</ele>
        <time>2020-08-26T20:02:21.50Z</time>
      </trkpt>
      <trkpt lat="44.7471" lon="5.50703">
        <ele>782</ele>
        <time>2020-08-26T20:03:13.69Z</time>
      </trkpt>
      <trkpt lat="44.7471" lon="5.50673">
        <ele>778</ele>
        <time>2020-08-26T20:03:44.30Z</time>
      </trkpt>
      <trkpt lat="44.74705" lon="5.50661">
        <ele>777</ele>
        <time>2020-08-26T20:03:56.10Z</time>
      </trkpt>
      <trkpt lat="44.74683" lon="5.50638">
        <ele>773</ele>
        <time>2020-08-26T20:04:20.93Z</time>
      </trkpt>
      <trkpt lat="44.74672" lon="5.50612">
        <ele>771</ele>
        <time>2020-08-26T20:04:40.07Z</time>
      </trkpt>
      <trkpt lat="44.74667" lon="5.50581">
        <ele>770</ele>
        <time>2020-08-26T20:04:58.02Z</time>
      </trkpt>
      <trkpt lat="44.74667" lon="5.50545">
        <ele>769</ele>
        <time>2020-08-26T20:05:19.10Z</time>
      </trkpt>
      <trkpt lat="44.74671" lon="5.5052">
        <ele>769</ele>
        <time>2020-08-26T20:05:33.26Z</time>
      </trkpt>
      <trkpt lat="44.74687" lon="5.50495">
        <ele>770</ele>
        <time>2020-08-26T20:05:55.26Z</time>
      </trkpt>
      <trkpt lat="44.74693" lon="5.50471">
        <ele>770</ele>
        <time>2020-08-26T20:06:11.81Z</time>
      </trkpt>
      <trkpt lat="44.74673" lon="5.50472">
        <ele>771</ele>
        <time>2020-08-26T20:06:29.85Z</time>
      </trkpt>
      <trkpt lat="44.74664" lon="5.50467">
        <ele>772</ele>
        <time>2020-08-26T20:06:38.14Z</time>
      </trkpt>
      <trkpt lat="44.74645" lon="5.50434">
        <ele>772</ele>
        <time>2020-08-26T20:07:02.50Z</time>
      </trkpt>
      <trkpt lat="44.74642" lon="5.50418">
        <ele>772</ele>
        <time>2020-08-26T20:07:11.77Z</time>
      </trkpt>
      <trkpt lat="44.74626" lon="5.50422">
        <ele>770</ele>
        <time>2020-08-26T20:07:29.26Z</time>
      </trkpt>
      <trkpt lat="44.74616" lon="5.50431">
        <ele>769</ele>
        <time>2020-08-26T20:07:43.57Z</time>
      </trkpt>
      <trkpt lat="44.74615" lon="5.50474">
        <ele>763</ele>
        <time>2020-08-26T20:08:29.23Z</time>
      </trkpt>
    </trkseg>
  </trk>
</gpx>